Blackfoot, Montana
Current Conditions -  °F | °C
As of 4:56 AM on Friday 19 Dec 2014 (Local Time) from KCTB Reporting Station
Clear Clear  
Wind Chill: -6°   Ceiling: Unl
Heat Index: -2°   Visibility: 10mi
Dew Point: -6°   Wind: 6mph
Humidity: 75%   Direction: 190°S
Pressure: 29.83"   Gusts: NA
Location:  48.5484°N, 112.952°W
Report Text: KCTB 191156Z AUTO 19005KT 10SM CLR M02/M06 A2983 RMK AO2 SLP126 T10221061 10011 21039 58006
Loading
Personal Weather Stations






























Interactive Weather Map New forecast layout! Learn more

10-Day Weather Forecast

Advertisements
Track Severe Weather on mobile